Obelix — 7JAX — position and weather

sailwx.info

Track history (hours):
 
Tides and Currents Weather Stations Pressure Air Temp Water Temp Dewpoint Dewpoint Depression Visibility Wind Speed Wind Dir Waves Ship Positions

Obelix

Last reported at 2016-May-30 06:34 UTC. Time now 2016-May-30 06:53 UTC.
Position N 35°25' E 139°43'.

Length 74 m; draft 4 m.

Type: Ship. MMSI: 432528000.

Date/timePositionNaut miles runAvg speedWind from/ knotsBaromVisibWave heightAir tempDewpointWater temp
2016-May-30 06:34N 35°25' E 139°43'1212.5
2016-May-30 05:34N 35°30' E 139°57'4 3.7
2016-May-30 04:31N 35°30' E 140°02'0 0.0
2016-May-30 03:31N 35°30' E 140°02'0 0.0
2016-May-30 02:31N 35°30' E 140°02'0 0.0
2016-May-30 01:31N 35°30' E 140°02'0 0.0
2016-May-30 00:31N 35°30' E 140°02'0 0.0
2016-May-29 23:28N 35°30' E 140°02'5 5.5
2016-May-29 22:33N 35°29' E 139°56'1 0.9
2016-May-29 21:33N 35°28' E 139°55'6 5.6
2016-May-29 20:33N 35°26' E 139°49'1110.9
2016-May-29 19:33N 35°15' E 139°47'1211.7
2016-May-29 18:33N 35°04' E 139°43'1512.7
2016-May-29 17:23N 34°55' E 139°28'  
2016-May-27 08:24N 34°37' E 134°58'8 9.1
2016-May-27 07:33N 34°35' E 135°07'1211.8
2016-May-27 06:34N 34°34' E 135°21'3 2.9
2016-May-27 05:20N 34°33' E 135°25'0 0.0
2016-May-27 04:32N 34°33' E 135°25'0 0.0
2016-May-27 03:32N 34°33' E 135°25'0 0.0
2016-May-27 02:26N 34°33' E 135°25'0 0.0
2016-May-27 01:32N 34°33' E 135°25'5 4.7
2016-May-27 00:34N 34°32' E 135°20'0 0.1
2016-May-26 23:30N 34°32' E 135°20'0 0.1
2016-May-26 22:12N 34°32' E 135°20'0 0.0
2016-May-26 21:12N 34°32' E 135°20'0 0.1
2016-May-26 20:30N 34°32' E 135°20'0 0.0
2016-May-26 18:30N 34°32' E 135°20'0 0.0
2016-May-26 13:30N 34°32' E 135°20'0 0.0
2016-May-26 12:30N 34°32' E 135°20'0 0.0
2016-May-26 11:30N 34°32' E 135°20'0 0.0
2016-May-26 10:18N 34°32' E 135°20'1 1.3
2016-May-26 09:34N 34°32' E 135°19'1413.6
2016-May-26 08:33N 34°36' E 135°03'15 0.7
2016-May-25 11:10N 34°41' E 134°46'3311.4
2016-May-25 08:15N 34°08' E 134°44'22010.5
2016-May-24 11:22N 34°42' E 139°07'1312.3
2016-May-24 10:18N 34°52' E 139°17'911.4
2016-May-24 09:33N 34°57' E 139°26'1211.2
2016-May-24 08:28N 35°04' E 139°38'1011.3
2016-May-24 07:33N 35°12' E 139°46'1010.5
2016-May-24 06:33N 35°22' E 139°42'1010.4
2016-May-24 05:33N 35°30' E 139°51'9 8.5
2016-May-24 04:33N 35°30' E 140°02'0 0.0
2016-May-24 03:33N 35°30' E 140°02'0 0.0
2016-May-24 02:30N 35°30' E 140°02'0 0.0
2016-May-24 01:33N 35°30' E 140°02'0 0.0
2016-May-24 00:27N 35°30' E 140°02'0 0.0
2016-May-23 23:33N 35°30' E 140°02'3 3.2
2016-May-23 22:33N 35°30' E 139°58'2 2.0
2016-May-23 21:32N 35°29' E 139°56'0 0.0
2016-May-23 20:29N 35°29' E 139°56'0 0.0
2016-May-23 19:32N 35°29' E 139°56'0 0.0
2016-May-23 18:29N 35°29' E 139°56'0 0.0
2016-May-23 17:29N 35°29' E 139°56'0 0.0
2016-May-23 16:32N 35°29' E 139°56'0 0.0
2016-May-23 15:32N 35°29' E 139°56'0 0.0
2016-May-23 14:32N 35°29' E 139°56'0 0.0
2016-May-23 13:17N 35°29' E 139°56'0 0.0
2016-May-23 12:32N 35°29' E 139°56'0 0.0
2016-May-23 11:32N 35°29' E 139°56'0 0.0
2016-May-23 10:32N 35°29' E 139°56'0 0.1
2016-May-23 09:32N 35°29' E 139°56'0 0.0
2016-May-23 08:32N 35°29' E 139°56'0 0.0
2016-May-23 07:32N 35°29' E 139°56'0 0.1
2016-May-23 06:32N 35°29' E 139°56'0 0.0
2016-May-23 05:29N 35°29' E 139°56'0 0.0
2016-May-23 04:32N 35°29' E 139°56'0 0.0
2016-May-23 03:32N 35°29' E 139°56'0 0.0
2016-May-23 02:20N 35°29' E 139°56'0 0.0
2016-May-23 01:32N 35°29' E 139°56'0 0.0
2016-May-23 00:32N 35°29' E 139°56'0 0.0
2016-May-22 23:32N 35°29' E 139°56'0 0.0
2016-May-22 22:32N 35°29' E 139°56'0 0.0
2016-May-22 21:32N 35°29' E 139°56'0 0.0
2016-May-22 20:29N 35°29' E 139°56'0 0.0
2016-May-22 19:20N 35°29' E 139°56'0 0.0
2016-May-22 18:32N 35°29' E 139°56'0 0.0
2016-May-22 17:32N 35°29' E 139°56'0 0.0
2016-May-22 16:32N 35°29' E 139°56'0 0.0
2016-May-22 15:23N 35°29' E 139°56'0 0.0
2016-May-22 14:32N 35°29' E 139°56'0 0.0
2016-May-22 13:26N 35°29' E 139°56'0 0.0
2016-May-22 12:32N 35°29' E 139°56'0 0.0
2016-May-22 11:32N 35°29' E 139°56'6 6.1
2016-May-22 10:33N 35°27' E 139°49'1110.6
2016-May-22 09:33N 35°16' E 139°46'1212.1
2016-May-22 08:33N 35°04' E 139°44'24411.0
2016-May-21 10:18N 33°57' E 134°59'1012.2
2016-May-21 09:31N 34°07' E 134°59'1212.4
2016-May-21 08:33N 34°19' E 134°59'1212.2
2016-May-21 07:31N 34°31' E 135°02'9 9.4
2016-May-21 06:33N 34°37' E 134°54'  
Track history (hours):
 
Tides and Currents Weather Stations Pressure Air Temp Water Temp Dewpoint Dewpoint Depression Visibility Wind Speed Wind Dir Waves Ship Positions

Obelix

Last reported at 2016-May-30 06:34 UTC. Time now 2016-May-30 06:53 UTC.
Position N 35°25' E 139°43'.

Length 74 m; draft 4 m.

Type: Ship. MMSI: 432528000.

Date/timePositionNaut miles runAvg speedWind from/ knotsBaromVisibWave heightAir tempDewpointWater temp
2016-May-30 06:34N 35°25' E 139°43'1212.5
2016-May-30 05:34N 35°30' E 139°57'4 3.7
2016-May-30 04:31N 35°30' E 140°02'0 0.0
2016-May-30 03:31N 35°30' E 140°02'0 0.0
2016-May-30 02:31N 35°30' E 140°02'0 0.0
2016-May-30 01:31N 35°30' E 140°02'0 0.0
2016-May-30 00:31N 35°30' E 140°02'0 0.0
2016-May-29 23:28N 35°30' E 140°02'5 5.5
2016-May-29 22:33N 35°29' E 139°56'1 0.9
2016-May-29 21:33N 35°28' E 139°55'6 5.6
2016-May-29 20:33N 35°26' E 139°49'1110.9
2016-May-29 19:33N 35°15' E 139°47'1211.7
2016-May-29 18:33N 35°04' E 139°43'1512.7
2016-May-29 17:23N 34°55' E 139°28'  
2016-May-27 08:24N 34°37' E 134°58'8 9.1
2016-May-27 07:33N 34°35' E 135°07'1211.8
2016-May-27 06:34N 34°34' E 135°21'3 2.9
2016-May-27 05:20N 34°33' E 135°25'0 0.0
2016-May-27 04:32N 34°33' E 135°25'0 0.0
2016-May-27 03:32N 34°33' E 135°25'0 0.0
2016-May-27 02:26N 34°33' E 135°25'0 0.0
2016-May-27 01:32N 34°33' E 135°25'5 4.7
2016-May-27 00:34N 34°32' E 135°20'0 0.1
2016-May-26 23:30N 34°32' E 135°20'0 0.1
2016-May-26 22:12N 34°32' E 135°20'0 0.0
2016-May-26 21:12N 34°32' E 135°20'0 0.1
2016-May-26 20:30N 34°32' E 135°20'0 0.0
2016-May-26 18:30N 34°32' E 135°20'0 0.0
2016-May-26 13:30N 34°32' E 135°20'0 0.0
2016-May-26 12:30N 34°32' E 135°20'0 0.0
2016-May-26 11:30N 34°32' E 135°20'0 0.0
2016-May-26 10:18N 34°32' E 135°20'1 1.3
2016-May-26 09:34N 34°32' E 135°19'1413.6
2016-May-26 08:33N 34°36' E 135°03'15 0.7
2016-May-25 11:10N 34°41' E 134°46'3311.4
2016-May-25 08:15N 34°08' E 134°44'22010.5
2016-May-24 11:22N 34°42' E 139°07'1312.3
2016-May-24 10:18N 34°52' E 139°17'911.4
2016-May-24 09:33N 34°57' E 139°26'1211.2
2016-May-24 08:28N 35°04' E 139°38'1011.3
2016-May-24 07:33N 35°12' E 139°46'1010.5
2016-May-24 06:33N 35°22' E 139°42'1010.4
2016-May-24 05:33N 35°30' E 139°51'9 8.5
2016-May-24 04:33N 35°30' E 140°02'0 0.0
2016-May-24 03:33N 35°30' E 140°02'0 0.0
2016-May-24 02:30N 35°30' E 140°02'0 0.0
2016-May-24 01:33N 35°30' E 140°02'0 0.0
2016-May-24 00:27N 35°30' E 140°02'0 0.0
2016-May-23 23:33N 35°30' E 140°02'3 3.2
2016-May-23 22:33N 35°30' E 139°58'2 2.0
2016-May-23 21:32N 35°29' E 139°56'0 0.0
2016-May-23 20:29N 35°29' E 139°56'0 0.0
2016-May-23 19:32N 35°29' E 139°56'0 0.0
2016-May-23 18:29N 35°29' E 139°56'0 0.0
2016-May-23 17:29N 35°29' E 139°56'0 0.0
2016-May-23 16:32N 35°29' E 139°56'0 0.0
2016-May-23 15:32N 35°29' E 139°56'0 0.0
2016-May-23 14:32N 35°29' E 139°56'0 0.0
2016-May-23 13:17N 35°29' E 139°56'0 0.0
2016-May-23 12:32N 35°29' E 139°56'0 0.0
2016-May-23 11:32N 35°29' E 139°56'0 0.0
2016-May-23 10:32N 35°29' E 139°56'0 0.1
2016-May-23 09:32N 35°29' E 139°56'0 0.0
2016-May-23 08:32N 35°29' E 139°56'0 0.0
2016-May-23 07:32N 35°29' E 139°56'0 0.1
2016-May-23 06:32N 35°29' E 139°56'0 0.0
2016-May-23 05:29N 35°29' E 139°56'0 0.0
2016-May-23 04:32N 35°29' E 139°56'0 0.0
2016-May-23 03:32N 35°29' E 139°56'0 0.0
2016-May-23 02:20N 35°29' E 139°56'0 0.0
2016-May-23 01:32N 35°29' E 139°56'0 0.0
2016-May-23 00:32N 35°29' E 139°56'0 0.0
2016-May-22 23:32N 35°29' E 139°56'0 0.0
2016-May-22 22:32N 35°29' E 139°56'0 0.0
2016-May-22 21:32N 35°29' E 139°56'0 0.0
2016-May-22 20:29N 35°29' E 139°56'0 0.0
2016-May-22 19:20N 35°29' E 139°56'0 0.0
2016-May-22 18:32N 35°29' E 139°56'0 0.0
2016-May-22 17:32N 35°29' E 139°56'0 0.0
2016-May-22 16:32N 35°29' E 139°56'0 0.0
2016-May-22 15:23N 35°29' E 139°56'0 0.0
2016-May-22 14:32N 35°29' E 139°56'0 0.0
2016-May-22 13:26N 35°29' E 139°56'0 0.0
2016-May-22 12:32N 35°29' E 139°56'0 0.0
2016-May-22 11:32N 35°29' E 139°56'6 6.1
2016-May-22 10:33N 35°27' E 139°49'1110.6
2016-May-22 09:33N 35°16' E 139°46'1212.1
2016-May-22 08:33N 35°04' E 139°44'24411.0
2016-May-21 10:18N 33°57' E 134°59'1012.2
2016-May-21 09:31N 34°07' E 134°59'1212.4
2016-May-21 08:33N 34°19' E 134°59'1212.2
2016-May-21 07:31N 34°31' E 135°02'9 9.4
2016-May-21 06:33N 34°37' E 134°54'  

Dump ship's entire track history